Pagrindinis puslapis
METAR-TAF:

METAR-TAF

Oro uostai :

Genuja, Italija

platuma: 44-25N, ilguma: 008-51E, Aukštis: 2 m

Dabartinis oras

Ataskaita buvo paskelbta 26 minutes, ne 16:20 UTC
Vėjas 5 kt iš Pietvakarių
Temperatūra 12°C
Drėgmė 62%
Slėgis 1018 hPa
Matomumas 10 km arba daugiau
Išsisklaidę debesys ne aukštis 3000 ft

METAR: LIMJ 151620Z 23005KT 9999 SCT030 12/05 Q1018

Laikas: 18:46 (16:46 UTC)

Prognozė

Ataskaita buvo paskelbta 5 valandos ir 46 minutes, ne 11:00 UTC
Prognozė galioja nuo 15 metu 12 UTC su 16 metu 12 UTC
Vėjas 10 kt iš Šiaurės
Matomumas 10 km arba daugiau
Su prošvaistėmis ne aukštis 6000 ft

TAF: LIMJ 151100Z 1512/1612 35010KT 9999 BKN060

Orai ataskaitas ir orų prognozės (METAR, TAF).

turimą stotys yra geltonos ir raudonos taškus žemėlapyje.

Perkelti pele per norėdami pamatyti stoties vardą.

Tada spustelėkite, norėdami matyti oro stebėjimo ir prognozės.

Norėdami pakeisti žemėlapį: spustelėkite ant žalios mygtukų su juodo kryžiaus žemyn,; žalią mygtuką su brūkšneliu, jei norite nutolinti; arba žalių rodyklių gretimoms žemėlapius.


METAR-TAF: